Eviapetrol II — SY6858 — position and weather

sailwx.info

Track history (hours):
 
Tides and Currents Weather Stations Pressure Air Temp Water Temp Dewpoint Dewpoint Depression Visibility Wind Speed Wind Dir Waves Ship Positions

Eviapetrol II

Last reported at 2015-Mar-06 12:25 UTC. Time now 2015-Mar-06 16:10 UTC.
Position N 37°38' E 023°56'.

Length 78 m; draft 3.4 m.

Type: Tanker. MMSI: 240493000.

Date/timePositionNaut miles runAvg speedWind from/ knotsBaromVisibWave heightAir tempDewpointWater temp
2015-Mar-06 12:25N 37°38' E 023°56'6 7.0
2015-Mar-06 11:33N 37°39' E 023°48'6 6.2
2015-Mar-06 10:33N 37°42' E 023°41'7 7.5
2015-Mar-06 09:33N 37°48' E 023°37'8 7.9
2015-Mar-06 08:34N 37°56' E 023°35'6 6.2
2015-Mar-06 07:34N 38°02' E 023°32'0 0.1
2015-Mar-06 06:30N 38°02' E 023°32'1 0.7
2015-Mar-06 05:33N 38°02' E 023°31'0 0.4
2015-Mar-06 04:31N 38°02' E 023°31'0 0.0
2015-Mar-06 03:04N 38°02' E 023°31'0 0.0
2015-Mar-06 02:24N 38°02' E 023°31'0 0.0
2015-Mar-05 23:19N 38°02' E 023°31'0 0.0
2015-Mar-05 20:30N 38°02' E 023°31'0 0.1
2015-Mar-05 15:09N 38°02' E 023°30'4 6.1
2015-Mar-05 14:33N 37°59' E 023°33'4 4.0
2015-Mar-05 13:33N 37°55' E 023°36'7 6.7
2015-Mar-05 12:33N 37°50' E 023°40'10 9.5
2015-Mar-05 11:33N 37°41' E 023°45'102 2.2
2015-Mar-03 12:33N 37°32' E 025°54'9 8.8
2015-Mar-03 11:33N 37°24' E 025°51'9 8.6
2015-Mar-03 10:33N 37°16' E 025°48'10 8.8
2015-Mar-03 09:25N 37°06' E 025°45'8 9.3
2015-Mar-03 08:33N 36°58' E 025°44'9 9.3
2015-Mar-03 07:32N 36°49' E 025°41'106 2.5
2015-Mar-01 12:33N 37°39' E 023°44'9 9.1
2015-Mar-01 11:33N 37°47' E 023°38'9 9.0
2015-Mar-01 10:33N 37°56' E 023°36'6 2.9
2015-Mar-01 08:33N 38°01' E 023°33'2 0.2
2015-Feb-28 23:22N 38°02' E 023°36'0 0.0
2015-Feb-28 22:04N 38°02' E 023°36'0 0.0
2015-Feb-28 21:31N 38°02' E 023°36'0 0.0
2015-Feb-28 20:13N 38°02' E 023°36'0 0.0
2015-Feb-28 19:11N 38°02' E 023°36'3 4.5
2015-Feb-28 18:33N 38°01' E 023°32'8 7.6
2015-Feb-28 17:33N 37°57' E 023°24'10 9.9
2015-Feb-28 16:33N 37°55' E 023°12'  
2015-Feb-26 09:14N 38°08' E 022°35'39 6.6
2015-Feb-26 03:18N 37°57' E 023°23'7 6.7
2015-Feb-26 02:19N 38°01' E 023°30'5 0.6
2015-Feb-25 18:14N 38°02' E 023°36'0 0.0
2015-Feb-25 17:32N 38°02' E 023°36'0 0.0
2015-Feb-25 16:22N 38°02' E 023°36'1 0.7
2015-Feb-25 15:30N 38°01' E 023°35'0 0.0
2015-Feb-25 14:33N 38°01' E 023°35'1 0.7
2015-Feb-25 12:33N 38°01' E 023°33'7 6.6
2015-Feb-25 11:33N 37°55' E 023°37'9 8.8
2015-Feb-25 10:33N 37°47' E 023°42'10 9.1
2015-Feb-25 09:27N 37°39' E 023°50'  
Track history (hours):
 
Tides and Currents Weather Stations Pressure Air Temp Water Temp Dewpoint Dewpoint Depression Visibility Wind Speed Wind Dir Waves Ship Positions

Eviapetrol II

Last reported at 2015-Mar-06 12:25 UTC. Time now 2015-Mar-06 16:10 UTC.
Position N 37°38' E 023°56'.

Length 78 m; draft 3.4 m.

Type: Tanker. MMSI: 240493000.

Date/timePositionNaut miles runAvg speedWind from/ knotsBaromVisibWave heightAir tempDewpointWater temp
2015-Mar-06 12:25N 37°38' E 023°56'6 7.0
2015-Mar-06 11:33N 37°39' E 023°48'6 6.2
2015-Mar-06 10:33N 37°42' E 023°41'7 7.5
2015-Mar-06 09:33N 37°48' E 023°37'8 7.9
2015-Mar-06 08:34N 37°56' E 023°35'6 6.2
2015-Mar-06 07:34N 38°02' E 023°32'0 0.1
2015-Mar-06 06:30N 38°02' E 023°32'1 0.7
2015-Mar-06 05:33N 38°02' E 023°31'0 0.4
2015-Mar-06 04:31N 38°02' E 023°31'0 0.0
2015-Mar-06 03:04N 38°02' E 023°31'0 0.0
2015-Mar-06 02:24N 38°02' E 023°31'0 0.0
2015-Mar-05 23:19N 38°02' E 023°31'0 0.0
2015-Mar-05 20:30N 38°02' E 023°31'0 0.1
2015-Mar-05 15:09N 38°02' E 023°30'4 6.1
2015-Mar-05 14:33N 37°59' E 023°33'4 4.0
2015-Mar-05 13:33N 37°55' E 023°36'7 6.7
2015-Mar-05 12:33N 37°50' E 023°40'10 9.5
2015-Mar-05 11:33N 37°41' E 023°45'102 2.2
2015-Mar-03 12:33N 37°32' E 025°54'9 8.8
2015-Mar-03 11:33N 37°24' E 025°51'9 8.6
2015-Mar-03 10:33N 37°16' E 025°48'10 8.8
2015-Mar-03 09:25N 37°06' E 025°45'8 9.3
2015-Mar-03 08:33N 36°58' E 025°44'9 9.3
2015-Mar-03 07:32N 36°49' E 025°41'106 2.5
2015-Mar-01 12:33N 37°39' E 023°44'9 9.1
2015-Mar-01 11:33N 37°47' E 023°38'9 9.0
2015-Mar-01 10:33N 37°56' E 023°36'6 2.9
2015-Mar-01 08:33N 38°01' E 023°33'2 0.2
2015-Feb-28 23:22N 38°02' E 023°36'0 0.0
2015-Feb-28 22:04N 38°02' E 023°36'0 0.0
2015-Feb-28 21:31N 38°02' E 023°36'0 0.0
2015-Feb-28 20:13N 38°02' E 023°36'0 0.0
2015-Feb-28 19:11N 38°02' E 023°36'3 4.5
2015-Feb-28 18:33N 38°01' E 023°32'8 7.6
2015-Feb-28 17:33N 37°57' E 023°24'10 9.9
2015-Feb-28 16:33N 37°55' E 023°12'  
2015-Feb-26 09:14N 38°08' E 022°35'39 6.6
2015-Feb-26 03:18N 37°57' E 023°23'7 6.7
2015-Feb-26 02:19N 38°01' E 023°30'5 0.6
2015-Feb-25 18:14N 38°02' E 023°36'0 0.0
2015-Feb-25 17:32N 38°02' E 023°36'0 0.0
2015-Feb-25 16:22N 38°02' E 023°36'1 0.7
2015-Feb-25 15:30N 38°01' E 023°35'0 0.0
2015-Feb-25 14:33N 38°01' E 023°35'1 0.7
2015-Feb-25 12:33N 38°01' E 023°33'7 6.6
2015-Feb-25 11:33N 37°55' E 023°37'9 8.8
2015-Feb-25 10:33N 37°47' E 023°42'10 9.1
2015-Feb-25 09:27N 37°39' E 023°50'  

Dump ship's entire track history